createdAt,value
2022-12-15T00:01:41.739Z,-2.18
2022-12-15T00:04:02.086Z,-2.24
2022-12-15T00:06:22.327Z,-2.19
2022-12-15T00:08:42.696Z,-2.04
2022-12-15T00:11:03.112Z,-2.11
2022-12-15T00:13:29.522Z,-2.09
2022-12-15T00:15:50.207Z,-1.66
2022-12-15T00:18:11.862Z,-2.01
2022-12-15T00:20:32.328Z,-2.09
2022-12-15T00:22:52.607Z,-2.15
2022-12-15T00:25:12.936Z,-1.84
2022-12-15T00:27:33.239Z,-1.82
2022-12-15T00:29:53.682Z,-1.67
2022-12-15T00:32:14.087Z,-1.92
2022-12-15T00:34:35.774Z,-1.83
2022-12-15T00:36:56.275Z,-2.21
2022-12-15T00:39:03.528Z,-2.24
2022-12-15T00:41:06.775Z,-2.10
2022-12-15T00:43:12.012Z,-2.08
2022-12-15T00:45:14.969Z,-2.15
2022-12-15T00:47:16.715Z,-2.13
2022-12-15T00:49:53.158Z,-2.05
2022-12-15T00:52:13.497Z,-2.29
2022-12-15T00:54:33.767Z,-2.53
2022-12-15T00:56:54.029Z,-2.32
2022-12-15T00:59:15.137Z,-2.31
2022-12-15T01:01:35.432Z,-2.30
2022-12-15T01:03:55.685Z,-2.18
2022-12-15T01:06:17.714Z,-2.23
2022-12-15T01:08:38.036Z,-2.20
2022-12-15T01:10:58.500Z,-2.16
2022-12-15T01:13:18.756Z,-2.14
2022-12-15T01:15:38.833Z,-2.30
2022-12-15T01:17:59.375Z,-2.36
2022-12-15T01:20:18.452Z,-2.23
2022-12-15T01:22:22.644Z,-2.35
2022-12-15T01:24:25.477Z,-2.24
2022-12-15T01:26:28.181Z,-2.28
2022-12-15T01:28:31.226Z,-2.32
2022-12-15T01:30:33.980Z,-2.38
2022-12-15T01:32:39.377Z,-2.30
2022-12-15T01:34:44.111Z,-2.27
2022-12-15T01:36:47.343Z,-2.30
2022-12-15T01:38:54.224Z,-2.30
2022-12-15T01:41:01.111Z,-2.25
2022-12-15T01:43:03.870Z,-2.46
2022-12-15T01:45:45.949Z,-2.32
2022-12-15T01:47:48.711Z,-2.36
2022-12-15T01:49:52.486Z,-2.35
2022-12-15T01:51:59.739Z,-2.31
2022-12-15T01:54:06.439Z,-2.42
2022-12-15T01:56:10.679Z,-2.36
2022-12-15T01:58:16.331Z,-2.40
2022-12-15T02:00:19.178Z,-2.48
2022-12-15T02:02:26.241Z,-2.49
2022-12-15T02:04:29.664Z,-2.51
2022-12-15T02:06:32.344Z,-2.41
2022-12-15T02:08:35.085Z,-2.44
2022-12-15T02:11:02.726Z,-2.47
2022-12-15T02:13:16.742Z,-2.50
2022-12-15T02:15:27.322Z,-2.53
2022-12-15T02:17:38.287Z,-2.55
2022-12-15T02:20:12.317Z,-2.65
2022-12-15T02:22:28.300Z,-2.61
2022-12-15T02:25:01.981Z,-2.62
2022-12-15T02:27:14.394Z,-2.67
2022-12-15T02:29:38.501Z,-2.65
2022-12-15T02:31:51.712Z,-2.54
2022-12-15T02:34:01.063Z,-2.42
2022-12-15T02:36:13.746Z,-2.40
2022-12-15T02:38:16.765Z,-2.38
2022-12-15T02:40:19.949Z,-2.35
2022-12-15T02:42:24.578Z,-2.47
2022-12-15T02:44:34.388Z,-2.49
2022-12-15T02:46:52.836Z,-2.53
2022-12-15T02:49:06.937Z,-2.55
2022-12-15T02:51:23.510Z,-2.47
2022-12-15T02:53:51.367Z,-2.59
2022-12-15T02:56:06.539Z,-2.67
2022-12-15T02:58:15.575Z,-2.61
2022-12-15T03:00:19.368Z,-2.57
2022-12-15T03:02:25.926Z,-2.70
2022-12-15T03:04:34.041Z,-2.76
2022-12-15T03:06:36.774Z,-2.73
2022-12-15T03:08:39.690Z,-2.67
2022-12-15T03:10:42.484Z,-2.67
2022-12-15T03:12:45.289Z,-2.66
2022-12-15T03:14:47.918Z,-2.70
2022-12-15T03:16:51.043Z,-2.53
2022-12-15T03:18:55.216Z,-2.85
2022-12-15T03:20:57.998Z,-2.74
2022-12-15T03:23:01.794Z,-2.61
2022-12-15T03:25:05.550Z,-2.66
2022-12-15T03:27:08.293Z,-2.50
2022-12-15T03:29:11.537Z,-2.51
2022-12-15T03:31:14.357Z,-2.67
2022-12-15T03:33:17.191Z,-2.71
2022-12-15T03:35:21.733Z,-2.74
2022-12-15T03:37:24.409Z,-2.71
2022-12-15T03:39:27.143Z,-2.83
2022-12-15T03:41:29.888Z,-2.75
2022-12-15T03:43:32.936Z,-2.77
2022-12-15T03:45:36.043Z,-2.56
2022-12-15T03:47:41.834Z,-2.63
2022-12-15T03:49:44.915Z,-2.56
2022-12-15T03:51:49.002Z,-2.65
2022-12-15T03:53:51.956Z,-2.52
2022-12-15T03:55:54.852Z,-2.51
2022-12-15T03:57:58.062Z,-2.52
2022-12-15T04:00:00.161Z,-2.54
2022-12-15T04:02:03.076Z,-2.47
2022-12-15T04:04:06.322Z,-2.49
2022-12-15T04:06:09.050Z,-2.58
2022-12-15T04:08:13.232Z,-2.58
2022-12-15T04:10:17.165Z,-2.46
2022-12-15T04:12:19.842Z,-2.58
2022-12-15T04:14:22.552Z,-2.58
2022-12-15T04:16:25.289Z,-2.47
2022-12-15T04:18:28.045Z,-2.50
2022-12-15T04:20:30.443Z,-2.49
2022-12-15T04:22:33.168Z,-2.50
2022-12-15T04:24:55.002Z,-2.64
2022-12-15T04:27:15.545Z,-2.42
2022-12-15T04:29:35.656Z,-2.48
2022-12-15T04:31:56.088Z,-2.67
2022-12-15T04:34:19.610Z,-2.57
2022-12-15T04:36:40.894Z,-2.57
2022-12-15T04:39:01.129Z,-2.55
2022-12-15T04:41:23.064Z,-2.49
2022-12-15T04:43:43.486Z,-2.54
2022-12-15T04:46:03.757Z,-2.61
2022-12-15T04:48:24.186Z,-2.63
2022-12-15T04:50:44.514Z,-2.56
2022-12-15T04:53:04.840Z,-2.53
2022-12-15T04:55:25.701Z,-2.47
2022-12-15T04:57:54.213Z,-2.36
2022-12-15T05:00:14.705Z,-2.36
2022-12-15T05:02:35.258Z,-2.39
2022-12-15T05:04:55.637Z,-2.54
2022-12-15T05:07:16.180Z,-2.53
2022-12-15T05:09:36.660Z,-2.61
2022-12-15T05:11:57.126Z,-2.37
2022-12-15T05:14:18.939Z,-2.51
2022-12-15T05:16:39.646Z,-2.33
2022-12-15T05:18:59.915Z,-2.67
2022-12-15T05:21:20.225Z,-2.50
2022-12-15T05:23:40.637Z,-2.57
2022-12-15T05:26:01.116Z,-2.50
2022-12-15T05:28:24.683Z,-2.40
2022-12-15T05:30:46.367Z,-2.44
2022-12-15T05:32:49.845Z,-2.35
2022-12-15T05:34:52.754Z,-2.38
2022-12-15T05:36:56.470Z,-2.36
2022-12-15T05:38:59.083Z,-2.36
2022-12-15T05:41:01.846Z,-2.23
2022-12-15T05:43:04.884Z,-2.28
2022-12-15T05:45:08.524Z,-2.31
2022-12-15T05:47:13.434Z,-2.29
2022-12-15T05:49:18.430Z,-2.30
2022-12-15T05:51:21.170Z,-2.14
2022-12-15T05:53:24.258Z,-2.20
2022-12-15T05:55:26.864Z,-2.07
2022-12-15T05:57:29.597Z,-2.14
2022-12-15T05:59:32.329Z,-2.09
2022-12-15T06:01:35.794Z,-2.05
2022-12-15T06:03:40.497Z,-2.15
2022-12-15T06:05:43.632Z,-2.15
2022-12-15T06:07:46.518Z,-2.06
2022-12-15T06:09:49.253Z,-2.00
2022-12-15T06:11:51.922Z,-1.92
2022-12-15T06:13:57.901Z,-1.87
2022-12-15T06:16:02.273Z,-1.93
2022-12-15T06:18:05.268Z,-2.17
2022-12-15T06:20:10.261Z,-2.14
2022-12-15T06:22:13.174Z,-2.11
2022-12-15T06:24:16.123Z,-2.26
2022-12-15T06:26:21.486Z,-2.08
2022-12-15T06:28:24.985Z,-1.91
2022-12-15T06:30:27.570Z,-2.05
2022-12-15T06:32:30.326Z,-2.22
2022-12-15T06:34:32.975Z,-2.22
2022-12-15T06:36:37.409Z,-2.13
2022-12-15T06:38:43.588Z,-2.20
2022-12-15T06:40:46.282Z,-2.05
2022-12-15T06:42:49.047Z,-2.15
2022-12-15T06:44:51.677Z,-1.95
2022-12-15T06:46:54.429Z,-2.05
2022-12-15T06:48:57.441Z,-2.08
2022-12-15T06:51:04.071Z,-2.00
2022-12-15T06:53:08.272Z,-1.95
2022-12-15T06:55:11.068Z,-1.92
2022-12-15T06:57:13.694Z,-2.05
2022-12-15T06:59:16.333Z,-2.07
2022-12-15T07:01:20.163Z,-2.09
2022-12-15T07:03:23.484Z,-1.98
2022-12-15T07:05:27.345Z,-2.00
2022-12-15T07:07:30.137Z,-2.02
2022-12-15T07:09:34.140Z,-2.00
2022-12-15T07:11:37.448Z,-1.98
2022-12-15T07:13:40.400Z,-2.04
2022-12-15T07:15:44.443Z,-1.89
2022-12-15T07:17:47.120Z,-1.84
2022-12-15T07:19:49.819Z,-1.93
2022-12-15T07:21:52.985Z,-1.91
2022-12-15T07:23:57.090Z,-1.96
2022-12-15T07:26:09.634Z,-1.99
2022-12-15T07:28:14.173Z,-1.84
2022-12-15T07:30:17.551Z,-1.72
2022-12-15T07:32:20.639Z,-1.77
2022-12-15T07:34:24.091Z,-1.98
2022-12-15T07:36:27.429Z,-2.12
2022-12-15T07:38:30.810Z,-1.86
2022-12-15T07:40:33.498Z,-1.95
2022-12-15T07:42:37.737Z,-2.10
2022-12-15T07:44:40.860Z,-2.23
2022-12-15T07:46:46.859Z,-2.16
2022-12-15T07:48:50.325Z,-2.13
2022-12-15T07:51:02.936Z,-2.02
2022-12-15T07:53:10.323Z,-1.88
2022-12-15T07:55:13.487Z,-1.88
2022-12-15T07:57:16.477Z,-1.92
2022-12-15T07:59:20.738Z,-1.89
2022-12-15T08:01:24.820Z,-1.85
2022-12-15T08:03:28.362Z,-1.70
2022-12-15T08:05:31.131Z,-1.59
2022-12-15T08:07:33.770Z,-1.64
2022-12-15T08:09:36.639Z,-1.73
2022-12-15T08:11:39.571Z,-1.75
2022-12-15T08:16:08.442Z,-1.72
2022-12-15T08:18:11.215Z,-1.78
2022-12-15T08:20:15.027Z,-1.58
2022-12-15T08:22:17.716Z,-1.64
2022-12-15T08:24:20.451Z,-1.62
2022-12-15T08:26:29.855Z,-1.81
2022-12-15T08:28:33.276Z,-1.83
2022-12-15T08:30:36.782Z,-1.70
2022-12-15T08:32:40.896Z,-1.63
2022-12-15T08:34:43.595Z,-1.66
2022-12-15T08:36:46.247Z,-1.50
2022-12-15T08:38:49.568Z,-1.48
2022-12-15T08:40:52.318Z,-1.58
2022-12-15T08:42:54.979Z,-1.68
2022-12-15T08:44:57.582Z,-1.72
2022-12-15T08:47:00.208Z,-1.55
2022-12-15T08:49:05.178Z,-1.45
2022-12-15T08:51:08.253Z,-1.37
2022-12-15T08:53:30.719Z,-1.48
2022-12-15T08:55:35.458Z,-1.25
2022-12-15T08:57:38.525Z,-1.31
2022-12-15T08:59:41.185Z,-1.38
2022-12-15T09:01:44.053Z,-1.22
2022-12-15T09:03:47.280Z,-1.23
2022-12-15T09:05:51.290Z,-1.24
2022-12-15T09:07:57.691Z,-1.23
2022-12-15T09:10:03.362Z,-1.29
2022-12-15T09:12:06.783Z,-1.07
2022-12-15T09:14:09.406Z,-1.34
2022-12-15T09:16:15.053Z,-1.24
2022-12-15T09:18:17.735Z,-1.41
2022-12-15T09:20:20.932Z,-1.31
2022-12-15T09:22:25.040Z,-1.04
2022-12-15T09:24:34.762Z,-1.13
2022-12-15T09:26:37.907Z,-0.77
2022-12-15T09:28:40.929Z,-1.08
2022-12-15T09:30:43.931Z,-0.73
2022-12-15T09:32:46.607Z,-0.61
2022-12-15T09:34:49.283Z,-0.83
2022-12-15T09:36:53.061Z,-0.76
2022-12-15T09:38:57.393Z,-0.66
2022-12-15T09:41:09.537Z,-0.60
2022-12-15T09:43:34.343Z,-0.85
2022-12-15T09:45:47.225Z,-0.80
2022-12-15T09:47:54.903Z,-1.09
2022-12-15T09:50:00.248Z,-0.83
2022-12-15T09:52:10.893Z,-0.61
2022-12-15T09:54:15.581Z,-0.73
2022-12-15T09:56:24.810Z,-0.32
2022-12-15T09:58:41.644Z,-0.57
2022-12-15T10:00:52.621Z,-0.31
2022-12-15T10:03:11.680Z,-1.01
2022-12-15T10:05:38.184Z,-0.88
2022-12-15T10:07:51.064Z,-1.00
2022-12-15T10:09:55.178Z,-0.76
2022-12-15T10:12:01.347Z,-1.06
2022-12-15T10:14:12.865Z,-0.92
2022-12-15T10:16:23.895Z,-1.06
2022-12-15T10:18:33.857Z,-1.00
2022-12-15T10:20:36.792Z,-0.63
2022-12-15T10:22:39.642Z,-0.72
2022-12-15T10:25:09.333Z,-0.89
2022-12-15T10:27:21.892Z,-0.73
2022-12-15T10:29:33.986Z,-0.89
2022-12-15T10:31:46.141Z,-1.03
2022-12-15T10:33:57.676Z,-0.91
2022-12-15T10:36:00.332Z,-0.99
2022-12-15T10:38:05.870Z,-0.87
2022-12-15T10:40:10.040Z,-0.90
2022-12-15T10:42:18.055Z,-0.82
2022-12-15T10:44:31.827Z,-0.83
2022-12-15T10:46:35.059Z,-0.91
2022-12-15T10:48:38.181Z,-0.83
2022-12-15T10:50:41.008Z,-0.80
2022-12-15T10:52:43.767Z,-0.95
2022-12-15T10:54:48.948Z,-0.94
2022-12-15T10:56:55.547Z,-0.94
2022-12-15T10:59:02.750Z,-0.92
2022-12-15T11:01:16.248Z,-1.16
2022-12-15T11:03:25.030Z,-0.99
2022-12-15T11:05:28.114Z,-0.95
2022-12-15T11:07:39.169Z,-0.87
2022-12-15T11:09:42.111Z,-0.92
2022-12-15T11:12:05.673Z,-1.01
2022-12-15T11:14:14.416Z,-0.68
2022-12-15T11:16:19.033Z,-0.55
2022-12-15T11:18:36.697Z,-0.62
2022-12-15T11:20:42.805Z,-0.64
2022-12-15T11:22:50.231Z,-0.54
2022-12-15T11:24:55.504Z,-0.21
2022-12-15T11:27:07.228Z,-0.55
2022-12-15T11:29:22.279Z,-0.74
2022-12-15T11:31:30.548Z,-0.65
2022-12-15T11:33:33.814Z,-0.20
2022-12-15T11:35:54.355Z,-0.45
2022-12-15T11:38:03.897Z,-0.91
2022-12-15T11:40:20.708Z,-0.78
2022-12-15T11:42:30.152Z,-0.39
2022-12-15T11:44:45.024Z,-0.53
2022-12-15T11:47:01.729Z,-0.65
2022-12-15T11:49:40.758Z,-0.61
2022-12-15T11:51:52.899Z,-0.60
2022-12-15T11:54:10.620Z,-0.53
2022-12-15T11:56:23.852Z,-0.38
2022-12-15T11:58:45.008Z,-0.34
2022-12-15T12:01:03.644Z,-0.42
2022-12-15T12:03:22.124Z,-0.56
2022-12-15T12:05:47.810Z,-0.51
2022-12-15T12:07:58.443Z,-0.41
2022-12-15T12:10:14.613Z,-0.31
2022-12-15T12:12:26.009Z,-0.50
2022-12-15T12:14:40.437Z,-0.35
2022-12-15T12:16:52.125Z,-0.53
2022-12-15T12:19:02.192Z,-0.42
2022-12-15T12:21:10.061Z,-0.33
2022-12-15T12:23:20.063Z,-0.42
2022-12-15T12:25:25.466Z,-0.19
2022-12-15T12:27:36.633Z,-0.44
2022-12-15T12:29:43.596Z,-0.38
2022-12-15T12:31:51.385Z,-0.24
2022-12-15T12:34:00.605Z,-0.44
2022-12-15T12:36:08.253Z,-0.28
2022-12-15T12:38:12.480Z,-0.30
2022-12-15T12:40:21.867Z,-0.32
2022-12-15T12:42:32.382Z,-0.18
2022-12-15T12:44:37.677Z,-0.20
2022-12-15T12:46:44.978Z,-0.20
2022-12-15T12:48:55.975Z,-0.01
2022-12-15T12:51:13.662Z,-0.09
2022-12-15T12:53:28.416Z,-0.03
2022-12-15T12:55:39.553Z,-0.20
2022-12-15T12:57:43.766Z,-0.14
2022-12-15T12:59:50.619Z,0.04
2022-12-15T13:01:53.549Z,-0.21
2022-12-15T13:04:09.708Z,-0.16
2022-12-15T13:06:24.117Z,-0.03
2022-12-15T13:08:51.898Z,-0.04
2022-12-15T13:10:55.314Z,-0.03
2022-12-15T13:12:59.349Z,-0.08
2022-12-15T13:15:07.487Z,-0.04
2022-12-15T13:17:26.495Z,-0.07
2022-12-15T13:20:18.058Z,-0.18
2022-12-15T13:22:25.713Z,-0.20
2022-12-15T13:24:33.308Z,-0.16
2022-12-15T13:26:35.987Z,-0.14
2022-12-15T13:28:45.990Z,-0.18
2022-12-15T13:31:27.475Z,-0.06
2022-12-15T13:33:31.115Z,-0.09
2022-12-15T13:35:36.978Z,0.03
2022-12-15T13:37:50.500Z,-0.05
2022-12-15T13:39:57.288Z,-0.06
2022-12-15T13:42:35.888Z,-0.16
2022-12-15T13:44:58.347Z,-0.05
2022-12-15T13:47:12.965Z,0.03
2022-12-15T13:49:25.238Z,-0.26
2022-12-15T13:51:33.997Z,0.22
2022-12-15T13:53:41.786Z,-0.10
2022-12-15T13:55:55.027Z,-0.11
2022-12-15T13:58:03.837Z,-0.05
2022-12-15T14:00:18.331Z,-0.28
2022-12-15T14:02:27.459Z,-0.07
2022-12-15T14:04:30.183Z,-0.14
2022-12-15T14:06:39.693Z,-0.42
2022-12-15T14:08:42.763Z,-0.32
2022-12-15T14:10:50.901Z,-0.30
2022-12-15T14:12:57.465Z,-0.17
2022-12-15T14:15:00.309Z,-0.30
2022-12-15T14:17:07.634Z,-0.34
2022-12-15T14:19:16.325Z,-0.26
2022-12-15T14:21:21.837Z,-0.32
2022-12-15T14:23:27.968Z,-0.42
2022-12-15T14:25:31.456Z,-0.34
2022-12-15T14:27:34.847Z,-0.25
2022-12-15T14:29:37.708Z,-0.39
2022-12-15T14:31:41.854Z,-0.31
2022-12-15T14:33:46.665Z,-0.22
2022-12-15T14:35:56.742Z,-0.22
2022-12-15T14:38:03.740Z,-0.44
2022-12-15T14:40:15.691Z,-0.48
2022-12-15T14:42:22.285Z,-0.39
2022-12-15T14:44:38.381Z,-0.34
2022-12-15T14:46:46.434Z,-0.30
2022-12-15T14:48:55.120Z,-0.44
2022-12-15T14:51:01.588Z,-0.52
2022-12-15T14:53:12.680Z,-0.54
2022-12-15T14:55:31.837Z,-0.39
2022-12-15T14:57:42.463Z,-0.57
2022-12-15T14:59:48.465Z,-0.53
2022-12-15T15:01:59.190Z,-0.50
2022-12-15T15:04:03.056Z,-0.56
2022-12-15T15:06:08.312Z,-0.45
2022-12-15T15:08:16.072Z,-0.49
2022-12-15T15:10:25.421Z,-0.45
2022-12-15T15:12:42.600Z,-0.55
2022-12-15T15:14:48.137Z,-0.68
2022-12-15T15:17:02.838Z,-0.64
2022-12-15T15:19:06.230Z,-0.67
2022-12-15T15:21:15.350Z,-0.65
2022-12-15T15:23:19.767Z,-0.73
2022-12-15T15:25:39.872Z,-0.67
2022-12-15T15:27:44.513Z,-0.63
2022-12-15T15:29:49.220Z,-0.71
2022-12-15T15:31:54.172Z,-0.72
2022-12-15T15:33:58.826Z,-0.71
2022-12-15T15:36:04.332Z,-0.61
2022-12-15T15:38:16.236Z,-0.54
2022-12-15T15:40:19.600Z,-0.69
2022-12-15T15:42:26.544Z,-0.59
2022-12-15T15:44:34.756Z,-0.69
2022-12-15T15:46:44.437Z,-0.56
2022-12-15T15:48:51.524Z,-0.61
2022-12-15T15:50:54.361Z,-0.65
2022-12-15T15:52:57.790Z,-0.68
2022-12-15T15:55:00.771Z,-0.63
2022-12-15T15:57:03.426Z,-0.62
2022-12-15T15:59:12.846Z,-0.61
2022-12-15T16:01:16.985Z,-0.65
2022-12-15T16:03:20.096Z,-0.62
2022-12-15T16:05:22.902Z,-0.57
2022-12-15T16:07:28.855Z,-0.63
2022-12-15T16:09:31.639Z,-0.67
2022-12-15T16:11:35.223Z,-0.68
2022-12-15T16:13:37.960Z,-0.59
2022-12-15T16:15:41.145Z,-0.64
2022-12-15T16:17:45.360Z,-0.57
2022-12-15T16:19:48.860Z,-0.63
2022-12-15T16:21:52.195Z,-0.69
2022-12-15T16:23:56.466Z,-0.65
2022-12-15T16:26:00.650Z,-0.66
2022-12-15T16:28:03.610Z,-0.66
2022-12-15T16:30:15.602Z,-0.61
2022-12-15T16:32:18.329Z,-0.66
2022-12-15T16:34:24.761Z,-0.63
2022-12-15T16:36:27.806Z,-0.52
2022-12-15T16:38:32.851Z,-0.62
2022-12-15T16:40:39.579Z,-0.56
2022-12-15T16:42:42.390Z,-0.58
2022-12-15T16:44:45.136Z,-0.58
2022-12-15T16:46:47.862Z,-0.59
2022-12-15T16:48:51.770Z,-0.61
2022-12-15T16:50:58.255Z,-0.65
2022-12-15T16:53:01.325Z,-0.61
2022-12-15T16:55:04.210Z,-0.59
2022-12-15T16:57:11.640Z,-0.55
2022-12-15T16:59:34.334Z,-0.64
2022-12-15T17:01:40.308Z,-0.58
2022-12-15T17:03:43.535Z,-0.64
2022-12-15T17:05:50.131Z,-0.62
2022-12-15T17:07:56.961Z,-0.66
2022-12-15T17:10:00.072Z,-0.65
2022-12-15T17:12:03.182Z,-0.60
2022-12-15T17:14:06.750Z,-0.71
2022-12-15T17:16:14.183Z,-0.68
2022-12-15T17:18:17.252Z,-0.65
2022-12-15T17:20:30.319Z,-0.71
2022-12-15T17:22:33.603Z,-0.68
2022-12-15T17:24:37.821Z,-0.67
2022-12-15T17:26:40.950Z,-0.70
2022-12-15T17:28:43.779Z,-0.73
2022-12-15T17:30:46.909Z,-0.68
2022-12-15T17:32:49.909Z,-0.69
2022-12-15T17:34:52.702Z,-0.67
2022-12-15T17:36:55.878Z,-0.66
2022-12-15T17:39:00.135Z,-0.59
2022-12-15T17:41:04.219Z,-0.54
2022-12-15T17:43:13.720Z,-0.68
2022-12-15T17:45:19.682Z,-0.70
2022-12-15T17:47:24.148Z,-0.67
2022-12-15T17:49:30.131Z,-0.65
2022-12-15T17:51:37.787Z,-0.69
2022-12-15T17:53:40.670Z,-0.70
2022-12-15T17:55:43.389Z,-0.58
2022-12-15T17:57:47.859Z,-0.65
2022-12-15T17:59:50.558Z,-0.64
2022-12-15T18:01:57.085Z,-0.64
2022-12-15T18:04:00.091Z,-0.49
2022-12-15T18:06:02.854Z,-0.64
2022-12-15T18:08:14.963Z,-0.62
2022-12-15T18:10:25.445Z,-0.61
2022-12-15T18:12:29.061Z,-0.69
2022-12-15T18:14:33.038Z,-0.75
2022-12-15T18:16:35.792Z,-0.66
2022-12-15T18:18:38.700Z,-0.64
2022-12-15T18:20:41.886Z,-0.70
2022-12-15T18:22:44.896Z,-0.64
2022-12-15T18:24:47.845Z,-0.75
2022-12-15T18:26:50.469Z,-0.74
2022-12-15T18:28:53.290Z,-0.70
2022-12-15T18:31:02.180Z,-0.71
2022-12-15T18:33:05.095Z,-0.67
2022-12-15T18:35:15.701Z,-0.67
2022-12-15T18:37:19.787Z,-0.75
2022-12-15T18:39:24.481Z,-0.71
2022-12-15T18:41:27.260Z,-0.73
2022-12-15T18:43:32.489Z,-0.79
2022-12-15T18:45:35.589Z,-0.81
2022-12-15T18:47:39.615Z,-0.83
2022-12-15T18:49:42.287Z,-0.79
2022-12-15T18:51:46.402Z,-0.71
2022-12-15T18:53:49.831Z,-0.86
2022-12-15T18:55:52.630Z,-0.79
2022-12-15T18:57:55.367Z,-0.84
2022-12-15T18:59:59.841Z,-0.82
2022-12-15T19:02:02.545Z,-0.82
2022-12-15T19:04:06.736Z,-0.82
2022-12-15T19:06:25.773Z,-0.78
2022-12-15T19:08:32.098Z,-0.81
2022-12-15T19:10:35.649Z,-0.77
2022-12-15T19:12:38.370Z,-0.77
2022-12-15T19:14:41.108Z,-0.77
2022-12-15T19:17:01.498Z,-0.69
2022-12-15T19:19:22.011Z,-0.80
2022-12-15T19:21:44.536Z,-0.78
2022-12-15T19:23:47.233Z,-0.68
2022-12-15T19:25:50.799Z,-0.86
2022-12-15T19:27:58.579Z,-0.83
2022-12-15T19:30:01.746Z,-0.83
2022-12-15T19:32:04.488Z,-0.89
2022-12-15T19:34:08.108Z,-0.85
2022-12-15T19:36:16.460Z,-0.89
2022-12-15T19:38:25.384Z,-0.82
2022-12-15T19:40:31.290Z,-0.84
2022-12-15T19:42:35.748Z,-0.88
2022-12-15T19:44:38.484Z,-0.71
2022-12-15T19:46:42.229Z,-0.84
2022-12-15T19:48:45.434Z,-0.83
2022-12-15T19:50:51.671Z,-0.80
2022-12-15T19:52:57.668Z,-0.83
2022-12-15T19:55:02.586Z,-0.84
2022-12-15T19:57:05.210Z,-0.82
2022-12-15T19:59:14.474Z,-0.90
2022-12-15T20:01:18.510Z,-0.82
2022-12-15T20:03:21.864Z,-0.88
2022-12-15T20:05:25.987Z,-0.79
2022-12-15T20:07:31.541Z,-0.88
2022-12-15T20:09:34.344Z,-0.83
2022-12-15T20:11:38.843Z,-0.79
2022-12-15T20:13:41.562Z,-0.92
2022-12-15T20:15:44.858Z,-0.90
2022-12-15T20:17:48.398Z,-0.91
2022-12-15T20:19:51.091Z,-0.91
2022-12-15T20:21:53.856Z,-0.93
2022-12-15T20:24:00.337Z,-0.87
2022-12-15T20:26:07.269Z,-0.92
2022-12-15T20:28:16.749Z,-0.80
2022-12-15T20:30:21.726Z,-0.87
2022-12-15T20:32:24.357Z,-0.91
2022-12-15T20:34:27.230Z,-0.75
2022-12-15T20:36:31.610Z,-0.82
2022-12-15T20:38:35.018Z,-0.89
2022-12-15T20:40:37.765Z,-0.86
2022-12-15T20:42:40.630Z,-0.98
2022-12-15T20:44:44.628Z,-1.00
2022-12-15T20:46:48.123Z,-0.99
2022-12-15T20:48:52.794Z,-1.03
2022-12-15T20:50:55.482Z,-1.01
2022-12-15T20:52:58.460Z,-1.01
2022-12-15T20:55:02.956Z,-1.08
2022-12-15T20:57:05.786Z,-1.01
2022-12-15T20:59:08.496Z,-1.04
2022-12-15T21:01:20.878Z,-1.19
2022-12-15T21:03:26.701Z,-1.23
2022-12-15T21:05:29.506Z,-1.12
2022-12-15T21:07:32.283Z,-1.12
2022-12-15T21:09:35.255Z,-1.16
2022-12-15T21:11:38.117Z,-1.21
2022-12-15T21:13:40.968Z,-1.38
2022-12-15T21:15:43.716Z,-1.27
2022-12-15T21:17:57.317Z,-1.40
2022-12-15T21:20:07.474Z,-1.38
2022-12-15T21:22:20.049Z,-1.46
2022-12-15T21:24:24.724Z,-1.46
2022-12-15T21:26:28.154Z,-1.47
2022-12-15T21:28:31.130Z,-1.52
2022-12-15T21:30:35.723Z,-1.50
2022-12-15T21:32:38.518Z,-1.42
2022-12-15T21:34:42.826Z,-1.18
2022-12-15T21:36:48.787Z,-1.27
2022-12-15T21:38:52.959Z,-1.51
2022-12-15T21:40:59.881Z,-1.48
2022-12-15T21:43:05.680Z,-1.52
2022-12-15T21:45:15.026Z,-1.39
2022-12-15T21:47:48.733Z,-1.37
2022-12-15T21:49:52.370Z,-1.48
2022-12-15T21:51:58.058Z,-1.35
2022-12-15T21:54:00.883Z,-1.57
2022-12-15T21:56:03.614Z,-1.72
2022-12-15T21:58:24.721Z,-1.56
2022-12-15T22:00:27.817Z,-1.57
2022-12-15T22:02:30.661Z,-1.78
2022-12-15T22:04:35.446Z,-1.72
2022-12-15T22:06:39.428Z,-1.62
2022-12-15T22:08:42.118Z,-1.53
2022-12-15T22:10:46.448Z,-1.54
2022-12-15T22:12:59.007Z,-1.66
2022-12-15T22:15:01.898Z,-1.44
2022-12-15T22:17:15.253Z,-1.55
2022-12-15T22:19:17.875Z,-1.82
2022-12-15T22:21:20.683Z,-1.84
2022-12-15T22:23:24.763Z,-1.84
2022-12-15T22:25:27.545Z,-1.79
2022-12-15T22:27:33.979Z,-1.89
2022-12-15T22:29:36.703Z,-1.95
2022-12-15T22:31:39.353Z,-1.91
2022-12-15T22:33:42.221Z,-1.93
2022-12-15T22:35:44.932Z,-1.89
2022-12-15T22:37:49.563Z,-2.00
2022-12-15T22:39:53.547Z,-2.20
2022-12-15T22:41:57.414Z,-2.04
2022-12-15T22:44:00.138Z,-2.14
2022-12-15T22:46:04.044Z,-2.23
2022-12-15T22:48:07.015Z,-2.16
2022-12-15T22:50:16.868Z,-2.06
2022-12-15T22:52:21.615Z,-2.19
2022-12-15T22:54:26.134Z,-2.02
2022-12-15T22:56:37.783Z,-2.01
2022-12-15T22:58:43.779Z,-2.18
2022-12-15T23:00:46.524Z,-2.16
2022-12-15T23:02:49.207Z,-2.13
2022-12-15T23:04:51.887Z,-2.11
2022-12-15T23:06:54.918Z,-1.98
2022-12-15T23:08:57.761Z,-2.11
2022-12-15T23:11:18.653Z,-2.14
2022-12-15T23:13:22.679Z,-2.29
2022-12-15T23:15:45.395Z,-2.13
2022-12-15T23:17:48.170Z,-2.37
2022-12-15T23:19:50.857Z,-2.44
2022-12-15T23:21:54.363Z,-2.40
2022-12-15T23:23:57.702Z,-2.42
2022-12-15T23:26:00.493Z,-2.29
2022-12-15T23:28:03.300Z,-2.09
2022-12-15T23:30:09.424Z,-2.06
2022-12-15T23:32:12.157Z,-2.34
2022-12-15T23:34:15.338Z,-2.43
2022-12-15T23:36:18.075Z,-2.41
2022-12-15T23:38:21.414Z,-2.49
2022-12-15T23:40:24.189Z,-2.39
2022-12-15T23:42:27.357Z,-2.48
2022-12-15T23:44:30.060Z,-2.46
2022-12-15T23:46:34.727Z,-2.51
2022-12-15T23:48:39.509Z,-2.26
2022-12-15T23:50:42.343Z,-2.17
2022-12-15T23:52:45.233Z,-2.30
2022-12-15T23:54:48.405Z,-2.37
2022-12-15T23:56:51.097Z,-2.22
2022-12-15T23:58:56.770Z,-2.34
